Huvudsida
METAR-TAF:

METAR-TAF

Flygplatser :

Lar flygplats

Lar, Iran

latitud: 27-40-26N, longitud: 054-22-53E, höjd: 792 m

Aktuellt väderrapport

Denna rapport gjordes för 47 minuter sedan, klockan 14:00 UTC
Vind 16 kt från nord
Temperatur 41°C
Fuktighet 16%
Tryck 1003 hPa
Sikt 10 km eller mer
Inga moln under 1 500 m eller inga cumulonimbus

METAR: OISL 261400Z 35016KT CAVOK 41/10 Q1003

Tid: 19:17 (14:47 UTC)

Väderprognos

Denna rapport gjordes för 3 timmar och 17 minuter sedan, klockan 11:30 UTC
Prognos gäller från 26 kl. 12 UTC till 27 kl. 18 UTC
Vind 8 kt från syd/sydväst
Sikt 10 km eller mer
Inga moln under 1 500 m eller inga cumulonimbus

TAF: OISL 261130Z 2612/2718 20008KT CAVOK

Aktuella väderrapporter och prognoser från 4000 flygplatser (METAR- och TAF-rapporter).

De tillgängliga stationerna syns som gula och röda prickar på kartan.

För musen över prickarna för att se namnen på stationerna.

Klicka sedan för att få väderrapporter och prognoser.

För att ändra kartan: Klicka på de gröna knapparna med ett svart kors på för att zooma in; den gröna knappen med ett streck på för att zooma ut; eller på de gröna pilarna för angränsande kartor.


METAR-TAF: